sensor_id;sensor_type;location;lat;lon;timestamp;P1;durP1;ratioP1;P2;durP2;ratioP2
47764;SDS011;33529;49.242;8.670;2023-01-05T00:01:47;0.63;;;0.40;;
47764;SDS011;33529;49.242;8.670;2023-01-05T00:04:14;0.50;;;0.30;;
47764;SDS011;33529;49.242;8.670;2023-01-05T00:06:41;0.20;;;0.20;;
47764;SDS011;33529;49.242;8.670;2023-01-05T00:09:09;0.30;;;0.30;;
47764;SDS011;33529;49.242;8.670;2023-01-05T00:11:38;0.30;;;0.30;;
47764;SDS011;33529;49.242;8.670;2023-01-05T00:14:25;0.22;;;0.22;;
47764;SDS011;33529;49.242;8.670;2023-01-05T00:17:16;1.17;;;0.63;;
47764;SDS011;33529;49.242;8.670;2023-01-05T00:20:08;0.88;;;0.60;;
47764;SDS011;33529;49.242;8.670;2023-01-05T00:23:03;0.20;;;0.20;;
47764;SDS011;33529;49.242;8.670;2023-01-05T00:25:31;0.57;;;0.32;;
47764;SDS011;33529;49.242;8.670;2023-01-05T00:28:01;0.30;;;0.30;;
47764;SDS011;33529;49.242;8.670;2023-01-05T00:30:29;0.20;;;0.20;;
47764;SDS011;33529;49.242;8.670;2023-01-05T00:33:03;0.32;;;0.22;;
47764;SDS011;33529;49.242;8.670;2023-01-05T00:35:32;0.98;;;0.30;;
47764;SDS011;33529;49.242;8.670;2023-01-05T00:37:59;1.77;;;0.57;;
47764;SDS011;33529;49.242;8.670;2023-01-05T00:40:26;0.45;;;0.28;;
47764;SDS011;33529;49.242;8.670;2023-01-05T00:42:53;0.35;;;0.30;;
47764;SDS011;33529;49.242;8.670;2023-01-05T00:45:19;1.10;;;0.50;;
47764;SDS011;33529;49.242;8.670;2023-01-05T00:47:47;1.83;;;0.52;;
47764;SDS011;33529;49.242;8.670;2023-01-05T00:50:17;1.15;;;0.50;;
47764;SDS011;33529;49.242;8.670;2023-01-05T00:52:45;0.80;;;0.30;;
47764;SDS011;33529;49.242;8.670;2023-01-05T00:55:12;0.40;;;0.40;;
47764;SDS011;33529;49.242;8.670;2023-01-05T00:57:39;0.70;;;0.30;;
47764;SDS011;33529;49.242;8.670;2023-01-05T01:00:09;0.60;;;0.30;;
47764;SDS011;33529;49.242;8.670;2023-01-05T01:02:39;0.57;;;0.30;;
47764;SDS011;33529;49.242;8.670;2023-01-05T01:05:06;0.85;;;0.60;;
47764;SDS011;33529;49.242;8.670;2023-01-05T01:07:33;1.35;;;0.55;;
47764;SDS011;33529;49.242;8.670;2023-01-05T01:10:03;0.50;;;0.25;;
47764;SDS011;33529;49.242;8.670;2023-01-05T01:12:30;0.95;;;0.60;;
47764;SDS011;33529;49.242;8.670;2023-01-05T01:14:57;0.30;;;0.30;;
47764;SDS011;33529;49.242;8.670;2023-01-05T01:17:23;0.73;;;0.30;;
47764;SDS011;33529;49.242;8.670;2023-01-05T01:19:50;1.65;;;0.40;;
47764;SDS011;33529;49.242;8.670;2023-01-05T01:22:17;0.65;;;0.45;;
47764;SDS011;33529;49.242;8.670;2023-01-05T01:24:44;0.45;;;0.40;;
47764;SDS011;33529;49.242;8.670;2023-01-05T01:27:11;1.45;;;0.40;;
47764;SDS011;33529;49.242;8.670;2023-01-05T01:29:38;0.75;;;0.30;;
47764;SDS011;33529;49.242;8.670;2023-01-05T01:32:04;0.20;;;0.20;;
47764;SDS011;33529;49.242;8.670;2023-01-05T01:34:32;0.30;;;0.20;;
47764;SDS011;33529;49.242;8.670;2023-01-05T01:36:58;1.10;;;0.43;;
47764;SDS011;33529;49.242;8.670;2023-01-05T01:39:31;1.67;;;0.52;;
47764;SDS011;33529;49.242;8.670;2023-01-05T01:42:05;0.98;;;0.50;;
47764;SDS011;33529;49.242;8.670;2023-01-05T01:50:09;0.98;;;0.60;;
47764;SDS011;33529;49.242;8.670;2023-01-05T01:52:46;0.52;;;0.30;;
47764;SDS011;33529;49.242;8.670;2023-01-05T01:55:15;1.05;;;0.35;;
47764;SDS011;33529;49.242;8.670;2023-01-05T01:57:43;0.70;;;0.40;;
47764;SDS011;33529;49.242;8.670;2023-01-05T02:00:11;0.20;;;0.20;;
47764;SDS011;33529;49.242;8.670;2023-01-05T02:02:43;0.25;;;0.20;;
47764;SDS011;33529;49.242;8.670;2023-01-05T02:05:15;0.30;;;0.30;;
47764;SDS011;33529;49.242;8.670;2023-01-05T02:07:44;0.63;;;0.32;;
47764;SDS011;33529;49.242;8.670;2023-01-05T02:10:13;1.10;;;0.57;;
47764;SDS011;33529;49.242;8.670;2023-01-05T02:12:48;0.53;;;0.30;;
47764;SDS011;33529;49.242;8.670;2023-01-05T02:15:33;0.25;;;0.25;;
47764;SDS011;33529;49.242;8.670;2023-01-05T02:18:18;0.50;;;0.30;;
47764;SDS011;33529;49.242;8.670;2023-01-05T02:24:24;0.98;;;0.50;;
47764;SDS011;33529;49.242;8.670;2023-01-05T02:29:49;1.05;;;0.40;;
47764;SDS011;33529;49.242;8.670;2023-01-05T02:32:54;0.22;;;0.20;;
47764;SDS011;33529;49.242;8.670;2023-01-05T02:35:39;0.70;;;0.35;;
47764;SDS011;33529;49.242;8.670;2023-01-05T02:38:26;0.73;;;0.30;;
47764;SDS011;33529;49.242;8.670;2023-01-05T02:41:27;1.90;;;0.38;;
47764;SDS011;33529;49.242;8.670;2023-01-05T02:44:07;0.15;;;0.15;;
47764;SDS011;33529;49.242;8.670;2023-01-05T02:46:35;0.68;;;0.30;;
47764;SDS011;33529;49.242;8.670;2023-01-05T02:49:02;0.20;;;0.20;;
47764;SDS011;33529;49.242;8.670;2023-01-05T02:51:35;1.05;;;0.30;;
47764;SDS011;33529;49.242;8.670;2023-01-05T02:54:08;0.32;;;0.20;;
47764;SDS011;33529;49.242;8.670;2023-01-05T02:56:41;0.47;;;0.20;;
47764;SDS011;33529;49.242;8.670;2023-01-05T02:59:16;0.63;;;0.30;;
47764;SDS011;33529;49.242;8.670;2023-01-05T03:01:57;0.32;;;0.30;;
47764;SDS011;33529;49.242;8.670;2023-01-05T03:04:29;0.32;;;0.32;;
47764;SDS011;33529;49.242;8.670;2023-01-05T03:07:08;0.30;;;0.25;;
47764;SDS011;33529;49.242;8.670;2023-01-05T03:09:39;0.20;;;0.20;;
47764;SDS011;33529;49.242;8.670;2023-01-05T03:14:57;0.30;;;0.30;;
47764;SDS011;33529;49.242;8.670;2023-01-05T03:17:34;0.57;;;0.30;;
47764;SDS011;33529;49.242;8.670;2023-01-05T03:20:07;0.20;;;0.20;;
47764;SDS011;33529;49.242;8.670;2023-01-05T03:22:37;0.47;;;0.22;;
47764;SDS011;33529;49.242;8.670;2023-01-05T03:25:25;0.20;;;0.20;;
47764;SDS011;33529;49.242;8.670;2023-01-05T03:28:14;0.65;;;0.30;;
47764;SDS011;33529;49.242;8.670;2023-01-05T03:31:09;0.47;;;0.40;;
47764;SDS011;33529;49.242;8.670;2023-01-05T03:37:44;0.80;;;0.30;;
47764;SDS011;33529;49.242;8.670;2023-01-05T03:40:23;0.85;;;0.50;;
47764;SDS011;33529;49.242;8.670;2023-01-05T03:42:53;0.47;;;0.30;;
47764;SDS011;33529;49.242;8.670;2023-01-05T03:45:21;0.30;;;0.22;;
47764;SDS011;33529;49.242;8.670;2023-01-05T03:47:51;0.20;;;0.20;;
47764;SDS011;33529;49.242;8.670;2023-01-05T03:50:23;1.17;;;0.35;;
47764;SDS011;33529;49.242;8.670;2023-01-05T03:52:50;0.30;;;0.30;;
47764;SDS011;33529;49.242;8.670;2023-01-05T03:55:17;0.55;;;0.32;;
47764;SDS011;33529;49.242;8.670;2023-01-05T03:57:46;0.20;;;0.20;;
47764;SDS011;33529;49.242;8.670;2023-01-05T04:00:14;0.10;;;0.10;;
47764;SDS011;33529;49.242;8.670;2023-01-05T04:02:44;0.22;;;0.20;;
47764;SDS011;33529;49.242;8.670;2023-01-05T04:05:16;0.40;;;0.30;;
47764;SDS011;33529;49.242;8.670;2023-01-05T04:07:43;1.50;;;0.30;;
47764;SDS011;33529;49.242;8.670;2023-01-05T04:10:11;0.40;;;0.22;;
47764;SDS011;33529;49.242;8.670;2023-01-05T04:12:39;0.73;;;0.30;;
47764;SDS011;33529;49.242;8.670;2023-01-05T04:15:06;0.45;;;0.30;;
47764;SDS011;33529;49.242;8.670;2023-01-05T04:17:33;0.17;;;0.17;;
47764;SDS011;33529;49.242;8.670;2023-01-05T04:20:01;0.30;;;0.30;;
47764;SDS011;33529;49.242;8.670;2023-01-05T04:22:32;0.10;;;0.10;;
47764;SDS011;33529;49.242;8.670;2023-01-05T04:24:59;0.20;;;0.20;;
47764;SDS011;33529;49.242;8.670;2023-01-05T04:27:28;0.20;;;0.20;;
47764;SDS011;33529;49.242;8.670;2023-01-05T04:29:55;0.20;;;0.20;;
47764;SDS011;33529;49.242;8.670;2023-01-05T04:32:22;0.20;;;0.20;;
47764;SDS011;33529;49.242;8.670;2023-01-05T04:34:48;0.28;;;0.15;;
47764;SDS011;33529;49.242;8.670;2023-01-05T04:37:19;0.75;;;0.30;;
47764;SDS011;33529;49.242;8.670;2023-01-05T04:39:46;0.20;;;0.20;;
47764;SDS011;33529;49.242;8.670;2023-01-05T04:42:13;0.20;;;0.20;;
47764;SDS011;33529;49.242;8.670;2023-01-05T04:44:42;0.10;;;0.10;;
47764;SDS011;33529;49.242;8.670;2023-01-05T04:47:09;0.20;;;0.20;;
47764;SDS011;33529;49.242;8.670;2023-01-05T04:49:39;0.20;;;0.20;;
47764;SDS011;33529;49.242;8.670;2023-01-05T04:52:07;0.20;;;0.20;;
47764;SDS011;33529;49.242;8.670;2023-01-05T04:54:35;0.30;;;0.20;;
47764;SDS011;33529;49.242;8.670;2023-01-05T04:57:05;0.20;;;0.20;;
47764;SDS011;33529;49.242;8.670;2023-01-05T04:59:32;0.30;;;0.20;;
47764;SDS011;33529;49.242;8.670;2023-01-05T05:02:01;0.20;;;0.17;;
47764;SDS011;33529;49.242;8.670;2023-01-05T05:04:30;0.20;;;0.20;;
47764;SDS011;33529;49.242;8.670;2023-01-05T05:06:58;0.22;;;0.20;;
47764;SDS011;33529;49.242;8.670;2023-01-05T05:09:29;0.28;;;0.25;;
47764;SDS011;33529;49.242;8.670;2023-01-05T05:11:58;0.43;;;0.17;;
47764;SDS011;33529;49.242;8.670;2023-01-05T05:14:25;0.98;;;0.30;;
47764;SDS011;33529;49.242;8.670;2023-01-05T05:16:56;0.40;;;0.20;;
47764;SDS011;33529;49.242;8.670;2023-01-05T05:19:23;0.57;;;0.30;;
47764;SDS011;33529;49.242;8.670;2023-01-05T05:21:50;0.30;;;0.30;;
47764;SDS011;33529;49.242;8.670;2023-01-05T05:24:17;0.60;;;0.30;;
47764;SDS011;33529;49.242;8.670;2023-01-05T05:26:45;1.75;;;0.70;;
47764;SDS011;33529;49.242;8.670;2023-01-05T05:29:12;0.30;;;0.30;;
47764;SDS011;33529;49.242;8.670;2023-01-05T05:31:39;0.98;;;0.35;;
47764;SDS011;33529;49.242;8.670;2023-01-05T05:34:06;0.95;;;0.30;;
47764;SDS011;33529;49.242;8.670;2023-01-05T05:36:32;1.55;;;0.50;;
47764;SDS011;33529;49.242;8.670;2023-01-05T05:39:01;1.30;;;0.40;;
47764;SDS011;33529;49.242;8.670;2023-01-05T05:41:27;2.25;;;0.50;;
47764;SDS011;33529;49.242;8.670;2023-01-05T05:43:54;0.73;;;0.40;;
47764;SDS011;33529;49.242;8.670;2023-01-05T05:46:26;0.88;;;0.20;;
47764;SDS011;33529;49.242;8.670;2023-01-05T05:48:53;2.80;;;0.40;;
47764;SDS011;33529;49.242;8.670;2023-01-05T05:51:21;2.25;;;0.52;;
47764;SDS011;33529;49.242;8.670;2023-01-05T05:53:48;0.47;;;0.30;;
47764;SDS011;33529;49.242;8.670;2023-01-05T05:56:15;2.50;;;0.57;;
47764;SDS011;33529;49.242;8.670;2023-01-05T05:58:42;1.85;;;0.63;;
47764;SDS011;33529;49.242;8.670;2023-01-05T06:01:09;0.85;;;0.50;;
47764;SDS011;33529;49.242;8.670;2023-01-05T06:03:37;1.02;;;0.75;;
47764;SDS011;33529;49.242;8.670;2023-01-05T06:06:04;1.88;;;0.47;;
47764;SDS011;33529;49.242;8.670;2023-01-05T06:08:31;3.70;;;0.82;;
47764;SDS011;33529;49.242;8.670;2023-01-05T06:10:58;6.28;;;0.88;;
47764;SDS011;33529;49.242;8.670;2023-01-05T06:13:25;3.88;;;0.68;;
47764;SDS011;33529;49.242;8.670;2023-01-05T06:15:52;3.92;;;0.98;;
47764;SDS011;33529;49.242;8.670;2023-01-05T06:18:19;1.67;;;0.80;;
47764;SDS011;33529;49.242;8.670;2023-01-05T06:20:45;1.65;;;0.45;;
47764;SDS011;33529;49.242;8.670;2023-01-05T06:23:12;2.47;;;0.75;;
47764;SDS011;33529;49.242;8.670;2023-01-05T06:25:40;2.35;;;0.57;;
47764;SDS011;33529;49.242;8.670;2023-01-05T06:28:06;1.67;;;0.70;;
47764;SDS011;33529;49.242;8.670;2023-01-05T06:30:33;1.10;;;0.50;;
47764;SDS011;33529;49.242;8.670;2023-01-05T06:33:00;3.15;;;0.40;;
47764;SDS011;33529;49.242;8.670;2023-01-05T06:35:30;1.98;;;0.63;;
47764;SDS011;33529;49.242;8.670;2023-01-05T06:37:57;0.98;;;0.30;;
47764;SDS011;33529;49.242;8.670;2023-01-05T06:40:23;0.73;;;0.38;;
47764;SDS011;33529;49.242;8.670;2023-01-05T06:42:50;5.25;;;0.75;;
47764;SDS011;33529;49.242;8.670;2023-01-05T06:45:17;1.58;;;0.50;;
47764;SDS011;33529;49.242;8.670;2023-01-05T06:47:45;2.88;;;0.63;;
47764;SDS011;33529;49.242;8.670;2023-01-05T06:50:11;1.17;;;0.52;;
47764;SDS011;33529;49.242;8.670;2023-01-05T06:52:38;0.88;;;0.30;;
47764;SDS011;33529;49.242;8.670;2023-01-05T06:55:08;3.05;;;0.85;;
47764;SDS011;33529;49.242;8.670;2023-01-05T06:57:36;3.27;;;0.40;;
47764;SDS011;33529;49.242;8.670;2023-01-05T07:00:07;3.38;;;0.60;;
47764;SDS011;33529;49.242;8.670;2023-01-05T07:02:35;1.30;;;0.47;;
47764;SDS011;33529;49.242;8.670;2023-01-05T07:05:02;1.27;;;0.63;;
47764;SDS011;33529;49.242;8.670;2023-01-05T07:07:29;1.13;;;0.65;;
47764;SDS011;33529;49.242;8.670;2023-01-05T07:09:56;2.13;;;0.50;;
47764;SDS011;33529;49.242;8.670;2023-01-05T07:12:23;0.55;;;0.40;;
47764;SDS011;33529;49.242;8.670;2023-01-05T07:14:50;4.05;;;0.65;;
47764;SDS011;33529;49.242;8.670;2023-01-05T07:17:22;1.13;;;0.32;;
47764;SDS011;33529;49.242;8.670;2023-01-05T07:19:49;1.25;;;0.43;;
47764;SDS011;33529;49.242;8.670;2023-01-05T07:22:16;1.70;;;0.80;;
47764;SDS011;33529;49.242;8.670;2023-01-05T07:24:43;1.20;;;0.40;;
47764;SDS011;33529;49.242;8.670;2023-01-05T07:27:09;1.65;;;0.60;;
47764;SDS011;33529;49.242;8.670;2023-01-05T07:29:36;1.10;;;0.50;;
47764;SDS011;33529;49.242;8.670;2023-01-05T07:32:03;0.75;;;0.40;;
47764;SDS011;33529;49.242;8.670;2023-01-05T07:34:30;0.80;;;0.60;;
47764;SDS011;33529;49.242;8.670;2023-01-05T07:36:57;2.20;;;0.28;;
47764;SDS011;33529;49.242;8.670;2023-01-05T07:39:23;0.70;;;0.40;;
47764;SDS011;33529;49.242;8.670;2023-01-05T07:41:50;1.98;;;0.85;;
47764;SDS011;33529;49.242;8.670;2023-01-05T07:44:17;2.08;;;0.63;;
47764;SDS011;33529;49.242;8.670;2023-01-05T07:46:44;0.75;;;0.43;;
47764;SDS011;33529;49.242;8.670;2023-01-05T07:49:10;2.20;;;0.63;;
47764;SDS011;33529;49.242;8.670;2023-01-05T07:51:37;3.17;;;0.88;;
47764;SDS011;33529;49.242;8.670;2023-01-05T07:54:04;1.52;;;0.40;;
47764;SDS011;33529;49.242;8.670;2023-01-05T07:56:31;2.38;;;0.60;;
47764;SDS011;33529;49.242;8.670;2023-01-05T07:58:58;0.70;;;0.38;;
47764;SDS011;33529;49.242;8.670;2023-01-05T08:01:24;1.63;;;0.70;;
47764;SDS011;33529;49.242;8.670;2023-01-05T08:03:51;2.20;;;0.88;;
47764;SDS011;33529;49.242;8.670;2023-01-05T08:06:18;1.27;;;0.50;;
47764;SDS011;33529;49.242;8.670;2023-01-05T08:08:46;0.80;;;0.35;;
47764;SDS011;33529;49.242;8.670;2023-01-05T08:11:14;2.50;;;0.50;;
47764;SDS011;33529;49.242;8.670;2023-01-05T08:13:42;1.02;;;0.60;;
47764;SDS011;33529;49.242;8.670;2023-01-05T08:16:26;2.53;;;0.50;;
47764;SDS011;33529;49.242;8.670;2023-01-05T08:18:54;1.27;;;0.75;;
47764;SDS011;33529;49.242;8.670;2023-01-05T08:21:20;3.95;;;1.20;;
47764;SDS011;33529;49.242;8.670;2023-01-05T08:23:47;1.63;;;0.77;;
47764;SDS011;33529;49.242;8.670;2023-01-05T08:26:16;3.13;;;0.60;;
47764;SDS011;33529;49.242;8.670;2023-01-05T08:28:44;4.07;;;0.80;;
47764;SDS011;33529;49.242;8.670;2023-01-05T08:31:15;1.42;;;0.47;;
47764;SDS011;33529;49.242;8.670;2023-01-05T08:33:44;1.92;;;0.80;;
47764;SDS011;33529;49.242;8.670;2023-01-05T08:36:12;1.88;;;0.73;;
47764;SDS011;33529;49.242;8.670;2023-01-05T08:38:41;0.70;;;0.30;;
47764;SDS011;33529;49.242;8.670;2023-01-05T08:41:17;0.40;;;0.40;;
47764;SDS011;33529;49.242;8.670;2023-01-05T08:43:51;1.13;;;0.40;;
47764;SDS011;33529;49.242;8.670;2023-01-05T08:46:24;1.10;;;0.40;;
47764;SDS011;33529;49.242;8.670;2023-01-05T08:48:54;3.53;;;1.27;;
47764;SDS011;33529;49.242;8.670;2023-01-05T08:51:22;1.98;;;0.40;;
47764;SDS011;33529;49.242;8.670;2023-01-05T08:53:49;0.40;;;0.40;;
47764;SDS011;33529;49.242;8.670;2023-01-05T08:56:17;1.98;;;0.55;;
47764;SDS011;33529;49.242;8.670;2023-01-05T08:58:44;2.78;;;0.70;;
47764;SDS011;33529;49.242;8.670;2023-01-05T09:01:13;1.65;;;0.63;;
47764;SDS011;33529;49.242;8.670;2023-01-05T09:03:42;1.50;;;0.50;;
47764;SDS011;33529;49.242;8.670;2023-01-05T09:06:10;1.13;;;0.55;;
47764;SDS011;33529;49.242;8.670;2023-01-05T09:08:38;0.70;;;0.35;;
47764;SDS011;33529;49.242;8.670;2023-01-05T09:13:38;2.67;;;0.70;;
47764;SDS011;33529;49.242;8.670;2023-01-05T09:16:12;2.42;;;0.60;;
47764;SDS011;33529;49.242;8.670;2023-01-05T09:18:40;2.33;;;0.35;;
47764;SDS011;33529;49.242;8.670;2023-01-05T09:21:07;3.30;;;0.77;;
47764;SDS011;33529;49.242;8.670;2023-01-05T09:23:35;1.77;;;0.40;;
47764;SDS011;33529;49.242;8.670;2023-01-05T09:26:03;0.60;;;0.35;;
47764;SDS011;33529;49.242;8.670;2023-01-05T09:28:31;2.28;;;0.50;;
47764;SDS011;33529;49.242;8.670;2023-01-05T09:30:58;1.23;;;0.47;;
47764;SDS011;33529;49.242;8.670;2023-01-05T09:33:25;3.88;;;0.80;;
47764;SDS011;33529;49.242;8.670;2023-01-05T09:35:52;2.17;;;0.70;;
47764;SDS011;33529;49.242;8.670;2023-01-05T09:38:22;0.57;;;0.43;;
47764;SDS011;33529;49.242;8.670;2023-01-05T09:40:50;2.25;;;0.57;;
47764;SDS011;33529;49.242;8.670;2023-01-05T09:43:22;2.22;;;0.55;;
47764;SDS011;33529;49.242;8.670;2023-01-05T09:45:54;1.08;;;0.40;;
47764;SDS011;33529;49.242;8.670;2023-01-05T09:48:22;2.40;;;0.60;;
47764;SDS011;33529;49.242;8.670;2023-01-05T09:50:51;1.70;;;0.65;;
47764;SDS011;33529;49.242;8.670;2023-01-05T09:53:22;1.73;;;0.60;;
47764;SDS011;33529;49.242;8.670;2023-01-05T09:55:55;1.23;;;0.40;;
47764;SDS011;33529;49.242;8.670;2023-01-05T09:58:24;3.13;;;0.75;;
47764;SDS011;33529;49.242;8.670;2023-01-05T10:01:10;4.85;;;1.00;;
47764;SDS011;33529;49.242;8.670;2023-01-05T10:06:31;2.55;;;1.65;;
47764;SDS011;33529;49.242;8.670;2023-01-05T10:09:03;1.85;;;0.50;;
47764;SDS011;33529;49.242;8.670;2023-01-05T10:14:39;1.30;;;0.40;;
47764;SDS011;33529;49.242;8.670;2023-01-05T10:17:22;3.42;;;0.70;;
47764;SDS011;33529;49.242;8.670;2023-01-05T10:26:40;2.42;;;1.23;;
47764;SDS011;33529;49.242;8.670;2023-01-05T10:29:53;1.30;;;0.73;;
47764;SDS011;33529;49.242;8.670;2023-01-05T10:32:47;2.92;;;0.85;;
47764;SDS011;33529;49.242;8.670;2023-01-05T10:35:59;4.38;;;0.98;;
47764;SDS011;33529;49.242;8.670;2023-01-05T10:38:54;1.35;;;0.60;;
47764;SDS011;33529;49.242;8.670;2023-01-05T10:47:16;1.55;;;0.77;;
47764;SDS011;33529;49.242;8.670;2023-01-05T10:49:45;2.08;;;1.05;;
47764;SDS011;33529;49.242;8.670;2023-01-05T10:52:19;1.88;;;0.60;;
47764;SDS011;33529;49.242;8.670;2023-01-05T10:55:00;1.63;;;1.00;;
47764;SDS011;33529;49.242;8.670;2023-01-05T10:57:38;4.22;;;0.90;;
47764;SDS011;33529;49.242;8.670;2023-01-05T11:00:10;1.83;;;0.55;;
47764;SDS011;33529;49.242;8.670;2023-01-05T11:05:20;1.95;;;0.57;;
47764;SDS011;33529;49.242;8.670;2023-01-05T11:07:59;2.08;;;1.00;;
47764;SDS011;33529;49.242;8.670;2023-01-05T11:10:33;2.13;;;0.60;;
47764;SDS011;33529;49.242;8.670;2023-01-05T11:15:31;3.30;;;0.75;;
47764;SDS011;33529;49.242;8.670;2023-01-05T11:18:05;3.83;;;1.27;;
47764;SDS011;33529;49.242;8.670;2023-01-05T11:20:32;3.90;;;0.90;;
47764;SDS011;33529;49.242;8.670;2023-01-05T11:22:59;2.33;;;0.70;;
47764;SDS011;33529;49.242;8.670;2023-01-05T11:28:13;2.33;;;0.52;;
47764;SDS011;33529;49.242;8.670;2023-01-05T11:30:56;2.90;;;1.15;;
47764;SDS011;33529;49.242;8.670;2023-01-05T11:33:25;2.17;;;0.47;;
47764;SDS011;33529;49.242;8.670;2023-01-05T11:35:55;2.13;;;0.73;;
47764;SDS011;33529;49.242;8.670;2023-01-05T11:38:28;3.30;;;0.70;;
47764;SDS011;33529;49.242;8.670;2023-01-05T11:40:56;1.17;;;0.47;;
47764;SDS011;33529;49.242;8.670;2023-01-05T11:43:26;2.63;;;0.70;;
47764;SDS011;33529;49.242;8.670;2023-01-05T11:45:57;2.65;;;0.70;;
47764;SDS011;33529;49.242;8.670;2023-01-05T11:48:28;0.82;;;0.38;;
47764;SDS011;33529;49.242;8.670;2023-01-05T11:50:57;2.53;;;0.60;;
47764;SDS011;33529;49.242;8.670;2023-01-05T11:53:25;2.45;;;0.88;;
47764;SDS011;33529;49.242;8.670;2023-01-05T11:56:02;1.17;;;0.55;;
47764;SDS011;33529;49.242;8.670;2023-01-05T11:58:33;2.85;;;0.63;;
47764;SDS011;33529;49.242;8.670;2023-01-05T12:15:03;1.52;;;0.70;;
47764;SDS011;33529;49.242;8.670;2023-01-05T12:26:27;1.85;;;0.90;;
47764;SDS011;33529;49.242;8.670;2023-01-05T12:35:27;3.55;;;1.23;;
47764;SDS011;33529;49.242;8.670;2023-01-05T12:38:19;2.83;;;1.48;;
47764;SDS011;33529;49.242;8.670;2023-01-05T12:49:33;3.92;;;1.20;;
47764;SDS011;33529;49.242;8.670;2023-01-05T12:52:12;5.15;;;1.20;;
47764;SDS011;33529;49.242;8.670;2023-01-05T12:55:10;1.20;;;0.75;;
47764;SDS011;33529;49.242;8.670;2023-01-05T12:57:51;2.97;;;1.13;;
47764;SDS011;33529;49.242;8.670;2023-01-05T13:00:23;2.33;;;1.25;;
47764;SDS011;33529;49.242;8.670;2023-01-05T13:02:55;3.63;;;1.30;;
47764;SDS011;33529;49.242;8.670;2023-01-05T13:11:26;2.22;;;1.00;;
47764;SDS011;33529;49.242;8.670;2023-01-05T13:13:57;2.17;;;1.10;;
47764;SDS011;33529;49.242;8.670;2023-01-05T13:16:30;3.78;;;1.27;;
47764;SDS011;33529;49.242;8.670;2023-01-05T13:19:08;4.80;;;1.38;;
47764;SDS011;33529;49.242;8.670;2023-01-05T13:21:42;3.42;;;1.40;;
47764;SDS011;33529;49.242;8.670;2023-01-05T13:24:13;1.80;;;0.93;;
47764;SDS011;33529;49.242;8.670;2023-01-05T13:27:02;7.55;;;2.13;;
47764;SDS011;33529;49.242;8.670;2023-01-05T13:29:30;4.88;;;1.40;;
47764;SDS011;33529;49.242;8.670;2023-01-05T13:35:04;0.68;;;0.50;;
47764;SDS011;33529;49.242;8.670;2023-01-05T13:40:51;2.97;;;0.93;;
47764;SDS011;33529;49.242;8.670;2023-01-05T13:46:10;2.45;;;1.00;;
47764;SDS011;33529;49.242;8.670;2023-01-05T13:57:24;0.98;;;0.60;;
47764;SDS011;33529;49.242;8.670;2023-01-05T13:59:57;2.15;;;0.75;;
47764;SDS011;33529;49.242;8.670;2023-01-05T14:02:40;3.80;;;0.68;;
47764;SDS011;33529;49.242;8.670;2023-01-05T14:08:45;2.72;;;0.70;;
47764;SDS011;33529;49.242;8.670;2023-01-05T14:17:08;3.92;;;0.90;;
47764;SDS011;33529;49.242;8.670;2023-01-05T14:24:44;2.88;;;1.38;;
47764;SDS011;33529;49.242;8.670;2023-01-05T14:27:15;1.42;;;0.80;;
47764;SDS011;33529;49.242;8.670;2023-01-05T14:36:24;2.50;;;1.00;;
47764;SDS011;33529;49.242;8.670;2023-01-05T14:40:13;3.90;;;1.10;;
47764;SDS011;33529;49.242;8.670;2023-01-05T14:46:06;2.63;;;0.60;;
47764;SDS011;33529;49.242;8.670;2023-01-05T14:48:42;2.83;;;0.95;;
47764;SDS011;33529;49.242;8.670;2023-01-05T14:51:30;2.40;;;0.93;;
47764;SDS011;33529;49.242;8.670;2023-01-05T14:54:01;1.50;;;0.70;;
47764;SDS011;33529;49.242;8.670;2023-01-05T14:56:34;1.88;;;0.60;;
47764;SDS011;33529;49.242;8.670;2023-01-05T14:59:13;3.42;;;0.70;;
47764;SDS011;33529;49.242;8.670;2023-01-05T15:01:55;2.08;;;0.80;;
47764;SDS011;33529;49.242;8.670;2023-01-05T15:14:24;5.70;;;1.05;;
47764;SDS011;33529;49.242;8.670;2023-01-05T15:19:38;5.43;;;0.90;;
47764;SDS011;33529;49.242;8.670;2023-01-05T15:41:07;1.70;;;0.90;;
47764;SDS011;33529;49.242;8.670;2023-01-05T15:43:43;4.45;;;1.17;;
47764;SDS011;33529;49.242;8.670;2023-01-05T15:51:56;2.85;;;1.15;;
47764;SDS011;33529;49.242;8.670;2023-01-05T15:55:50;2.28;;;0.63;;
47764;SDS011;33529;49.242;8.670;2023-01-05T16:01:36;4.22;;;1.17;;
47764;SDS011;33529;49.242;8.670;2023-01-05T16:04:15;2.65;;;0.85;;
47764;SDS011;33529;49.242;8.670;2023-01-05T16:10:47;2.80;;;1.02;;
47764;SDS011;33529;49.242;8.670;2023-01-05T16:17:09;2.75;;;1.13;;
47764;SDS011;33529;49.242;8.670;2023-01-05T16:19:59;2.88;;;1.33;;
47764;SDS011;33529;49.242;8.670;2023-01-05T16:25:17;1.40;;;0.70;;
47764;SDS011;33529;49.242;8.670;2023-01-05T16:27:51;2.78;;;1.20;;
47764;SDS011;33529;49.242;8.670;2023-01-05T16:30:28;1.90;;;0.68;;
47764;SDS011;33529;49.242;8.670;2023-01-05T16:33:59;1.42;;;0.60;;
47764;SDS011;33529;49.242;8.670;2023-01-05T16:36:09;3.67;;;2.22;;
47764;SDS011;33529;49.242;8.670;2023-01-05T16:39:10;3.03;;;0.80;;
47764;SDS011;33529;49.242;8.670;2023-01-05T16:41:38;1.40;;;0.70;;
47764;SDS011;33529;49.242;8.670;2023-01-05T16:44:25;2.53;;;1.00;;
47764;SDS011;33529;49.242;8.670;2023-01-05T16:47:05;1.35;;;0.70;;
47764;SDS011;33529;49.242;8.670;2023-01-05T16:49:36;1.85;;;0.88;;
47764;SDS011;33529;49.242;8.670;2023-01-05T16:52:22;2.65;;;1.30;;
47764;SDS011;33529;49.242;8.670;2023-01-05T16:57:52;3.45;;;0.70;;
47764;SDS011;33529;49.242;8.670;2023-01-05T17:02:55;1.42;;;0.60;;
47764;SDS011;33529;49.242;8.670;2023-01-05T17:05:25;3.55;;;1.23;;
47764;SDS011;33529;49.242;8.670;2023-01-05T17:07:58;6.28;;;1.17;;
47764;SDS011;33529;49.242;8.670;2023-01-05T17:10:27;4.28;;;1.17;;
47764;SDS011;33529;49.242;8.670;2023-01-05T17:12:57;2.97;;;1.05;;
47764;SDS011;33529;49.242;8.670;2023-01-05T17:15:25;3.05;;;0.88;;
47764;SDS011;33529;49.242;8.670;2023-01-05T17:17:55;1.60;;;0.73;;
47764;SDS011;33529;49.242;8.670;2023-01-05T17:20:22;4.22;;;1.25;;
47764;SDS011;33529;49.242;8.670;2023-01-05T17:22:52;3.70;;;0.88;;
47764;SDS011;33529;49.242;8.670;2023-01-05T17:25:22;2.70;;;0.73;;
47764;SDS011;33529;49.242;8.670;2023-01-05T17:27:51;2.45;;;1.05;;
47764;SDS011;33529;49.242;8.670;2023-01-05T17:30:18;1.92;;;0.82;;
47764;SDS011;33529;49.242;8.670;2023-01-05T17:32:46;3.03;;;0.60;;
47764;SDS011;33529;49.242;8.670;2023-01-05T17:35:13;5.38;;;1.10;;
47764;SDS011;33529;49.242;8.670;2023-01-05T17:40:14;2.17;;;0.50;;
47764;SDS011;33529;49.242;8.670;2023-01-05T17:45:17;1.90;;;0.77;;
47764;SDS011;33529;49.242;8.670;2023-01-05T17:47:46;6.05;;;0.90;;
47764;SDS011;33529;49.242;8.670;2023-01-05T17:50:19;1.67;;;0.90;;
47764;SDS011;33529;49.242;8.670;2023-01-05T17:53:01;2.80;;;0.77;;
47764;SDS011;33529;49.242;8.670;2023-01-05T17:55:29;1.10;;;0.52;;
47764;SDS011;33529;49.242;8.670;2023-01-05T17:57:56;4.07;;;0.75;;
47764;SDS011;33529;49.242;8.670;2023-01-05T18:00:25;2.42;;;0.70;;
47764;SDS011;33529;49.242;8.670;2023-01-05T18:03:00;1.13;;;0.60;;
47764;SDS011;33529;49.242;8.670;2023-01-05T18:05:27;4.18;;;0.93;;
47764;SDS011;33529;49.242;8.670;2023-01-05T18:07:54;2.83;;;0.60;;
47764;SDS011;33529;49.242;8.670;2023-01-05T18:10:22;2.47;;;0.90;;
47764;SDS011;33529;49.242;8.670;2023-01-05T18:12:54;5.57;;;1.35;;
47764;SDS011;33529;49.242;8.670;2023-01-05T18:15:21;2.42;;;0.75;;
47764;SDS011;33529;49.242;8.670;2023-01-05T18:17:48;2.42;;;0.80;;
47764;SDS011;33529;49.242;8.670;2023-01-05T18:20:14;4.55;;;1.13;;
47764;SDS011;33529;49.242;8.670;2023-01-05T18:22:46;3.03;;;0.70;;
47764;SDS011;33529;49.242;8.670;2023-01-05T18:25:14;3.13;;;1.05;;
47764;SDS011;33529;49.242;8.670;2023-01-05T18:27:41;4.22;;;1.30;;
47764;SDS011;33529;49.242;8.670;2023-01-05T18:30:08;1.92;;;0.98;;
47764;SDS011;33529;49.242;8.670;2023-01-05T18:32:36;2.00;;;0.95;;